Ceresole Reale, Italy

2:16 AM CET on February 21, 2017 (GMT +0100)
Groscavallo | | Change Station
Active Advisory: >

Elev 5082 ft 45.36 °N, 7.22 °E | Updated 6 minutes ago

Partly Cloudy
Partly Cloudy
35.9 °F
Feels Like 36 °F
N
0.0
Wind Variable Wind from North
Gusts 1.0 mph

Today
High -- | Low -- °F
--% Chance of Precip.
Yesterday
High -- | Low -- °F
Precip. -- in
Pressure 30.18 in
Visibility 0.1 miles
Clouds
Windchill 36 °F
Dew Point 23 °F
Humidity 60%
Rainfall 0.00 in
Snow Depth Not available.
7:22 AM 6:06 PM
Waning Crescent, 29% visible
METAR LIMF 210050Z 36003KT 330V030 0100 R36/0450N FG VV/// 01/01 Q1022
Pressure 30.18 in
Visibility 0.1 miles
Clouds
Windchill 36 °F
Dew Point 23 °F
Humidity 60%
Rainfall 0.00 in
Snow Depth Not available.
7:22 AM 6:06 PM
Waning Crescent, 29% visible
METAR LIMF 210050Z 36003KT 330V030 0100 R36/0450N FG VV/// 01/01 Q1022

Get Your Daily Forecast Email!

Thanks for signing up!

Be on the lookout for a verification email in your inbox.

You'll start receiving the daily forecast at 8 AM.

×

10-Day Weather Forecast

×

Almanac

Astronomy

Feb. 21, 2017 Rise Set
Actual Time
Civil Twilight
Nautical Twilight
Astronomical Twilight
Moon
Length of Visible Light
Length of Day
Tomorrow will be .
, % of the Moon is Illuminated

Today's Extremes

Country Highs Country Lows

Community

WunderPhotos

Upload Photos

1,962,540 photos uploaded!

WunderBlog® & News

Nearby

Air Quality

  Air Quality AQ Index Pollutant
Not available.

Snow Depth

Station Depth Elevation

Earthquake Activity

City Distance Mag. Time & Date
Minimum magnitude displayed is 2.5.

Coastal Water Temperatures

Place Temperature

Stations

Nearby Weather Stations

Station Location Temp. Windchill Dew Point Humidity Wind Precip. Elev Updated Type